Time;durP1;ratioP1;P1;durP2;ratioP2;P2;SDS_P1;SDS_P2;PMS_P1;PMS_P2;Temp;Humidity;BMP_temperature;BMP_pressure;BME280_temperature;BME280_humidity;BME280_pressure;Samples;Min_cycle;Max_cycle;Signal;HPM_P1;HPM_P2
2021/05/09 00:01:05;;;;;;;4.68;2.63;;;11.90;99.90;;;;;;5030404;28;20100;-45
2021/05/09 00:03:31;;;;;;;4.32;2.80;;;11.90;99.90;;;;;;5029546;28;20433;-45
2021/05/09 00:05:57;;;;;;;3.58;2.30;;;11.90;99.90;;;;;;5030717;28;20032;-48
2021/05/09 00:08:23;;;;;;;8.60;3.00;;;12.00;99.90;;;;;;5029968;28;20045;-45
2021/05/09 00:10:48;;;;;;;4.30;2.05;;;11.90;99.90;;;;;;5029952;28;20080;-44
2021/05/09 00:13:14;;;;;;;2.63;2.30;;;11.90;99.90;;;;;;5030846;28;20026;-45
2021/05/09 00:15:40;;;;;;;3.55;2.47;;;11.90;99.90;;;;;;5030597;28;20490;-44
2021/05/09 00:18:05;;;;;;;4.75;2.83;;;12.00;99.90;;;;;;5029976;28;20545;-45
2021/05/09 00:20:31;;;;;;;6.05;2.75;;;11.90;99.90;;;;;;5030436;28;20079;-45
2021/05/09 00:22:57;;;;;;;3.38;2.33;;;11.90;99.90;;;;;;5029014;28;20029;-46
2021/05/09 00:25:22;;;;;;;4.85;2.20;;;11.90;99.90;;;;;;5029978;28;20033;-45
2021/05/09 00:27:48;;;;;;;4.18;2.50;;;11.90;99.90;;;;;;5029390;28;20144;-45
2021/05/09 00:30:15;;;;;;;2.60;2.40;;;11.90;99.90;;;;;;5030312;28;20037;-45
2021/05/09 00:32:43;;;;;;;3.17;2.55;;;11.90;99.90;;;;;;5030281;28;20033;-48
2021/05/09 00:35:09;;;;;;;3.13;2.58;;;11.80;99.90;;;;;;5030037;28;20506;-44
2021/05/09 00:37:34;;;;;;;3.45;2.05;;;11.80;99.90;;;;;;5028066;28;20120;-45
2021/05/09 00:40:00;;;;;;;3.70;2.70;;;11.80;99.90;;;;;;5030157;28;20454;-45
2021/05/09 00:42:26;;;;;;;3.28;2.40;;;11.80;99.90;;;;;;5030146;28;20025;-46
2021/05/09 00:44:51;;;;;;;4.80;2.80;;;11.80;99.90;;;;;;5029742;28;20238;-44
2021/05/09 00:47:17;;;;;;;3.20;2.65;;;11.80;99.90;;;;;;5029560;28;20079;-44
2021/05/09 00:49:42;;;;;;;4.97;2.55;;;11.80;99.90;;;;;;5029683;28;20029;-45
2021/05/09 00:52:10;;;;;;;3.35;2.47;;;11.80;99.90;;;;;;5030289;28;20524;-45
2021/05/09 00:55:12;;;;;;;4.43;2.40;;;11.80;99.90;;;;;;5029982;28;20379;-45
2021/05/09 00:57:39;;;;;;;6.18;3.00;;;11.80;99.90;;;;;;5026010;28;20029;-45
2021/05/09 01:00:07;;;;;;;2.78;2.10;;;11.80;99.90;;;;;;5012773;28;20042;-45
2021/05/09 01:02:33;;;;;;;2.45;2.20;;;11.70;99.90;;;;;;5009729;28;20025;-45
2021/05/09 01:04:59;;;;;;;3.50;2.10;;;11.80;99.90;;;;;;5010142;28;20188;-44
2021/05/09 01:07:25;;;;;;;2.83;2.05;;;11.80;99.90;;;;;;5009348;28;20505;-46
2021/05/09 01:09:51;;;;;;;2.40;2.05;;;11.80;99.90;;;;;;5008268;28;20018;-46
2021/05/09 01:12:17;;;;;;;3.40;2.22;;;11.80;99.90;;;;;;5008257;28;20380;-45
2021/05/09 01:14:43;;;;;;;3.53;2.28;;;11.90;99.90;;;;;;5008176;28;20117;-45
2021/05/09 01:17:10;;;;;;;2.33;2.13;;;11.90;99.90;;;;;;5009331;28;20018;-44
2021/05/09 01:19:36;;;;;;;2.95;2.10;;;11.90;99.90;;;;;;5008840;28;20052;-44
2021/05/09 01:22:04;;;;;;;3.10;2.20;;;11.90;99.90;;;;;;5008120;28;20081;-45
2021/05/09 01:24:30;;;;;;;5.25;2.70;;;11.90;99.90;;;;;;5009696;28;20081;-44
2021/05/09 01:26:56;;;;;;;3.55;1.95;;;11.90;99.90;;;;;;5011049;28;20034;-44
2021/05/09 01:29:21;;;;;;;3.45;2.22;;;11.90;99.90;;;;;;5028561;28;20025;-44
2021/05/09 01:31:48;;;;;;;4.78;2.03;;;12.00;99.90;;;;;;5027550;28;20446;-45
2021/05/09 01:34:13;;;;;;;3.78;2.15;;;12.00;99.90;;;;;;5029069;28;20055;-44
2021/05/09 01:36:39;;;;;;;3.53;2.47;;;12.00;99.90;;;;;;5029080;28;20563;-45
2021/05/09 01:39:05;;;;;;;3.33;2.38;;;11.90;99.90;;;;;;5028348;28;20620;-44
2021/05/09 01:41:31;;;;;;;2.90;2.20;;;11.90;99.90;;;;;;5028752;28;20475;-44
2021/05/09 01:43:56;;;;;;;3.10;2.17;;;11.90;99.90;;;;;;5028874;28;20075;-45
2021/05/09 01:46:22;;;;;;;2.50;2.30;;;11.90;99.90;;;;;;5028726;28;20018;-45
2021/05/09 01:48:48;;;;;;;3.97;2.50;;;11.90;99.90;;;;;;5028020;28;20033;-45
2021/05/09 01:51:13;;;;;;;3.63;2.13;;;11.80;99.90;;;;;;5028805;28;20030;-45
2021/05/09 01:53:39;;;;;;;4.03;2.20;;;11.80;99.90;;;;;;5028993;28;20026;-44
2021/05/09 01:56:04;;;;;;;2.45;2.20;;;11.80;99.90;;;;;;5029004;28;20036;-45
2021/05/09 01:58:30;;;;;;;4.78;2.30;;;11.80;99.90;;;;;;5028072;28;20040;-44
2021/05/09 02:00:55;;;;;;;3.05;1.80;;;11.70;99.90;;;;;;5028626;28;20045;-45
2021/05/09 02:03:22;;;;;;;3.20;1.92;;;11.70;99.90;;;;;;5028230;28;20475;-44
2021/05/09 02:05:47;;;;;;;4.90;2.10;;;11.70;99.90;;;;;;5027252;28;20124;-45
2021/05/09 02:08:13;;;;;;;3.28;1.92;;;11.80;99.90;;;;;;5028239;28;20113;-47
2021/05/09 02:10:38;;;;;;;3.22;1.90;;;11.80;99.90;;;;;;5029088;28;20092;-45
2021/05/09 02:13:04;;;;;;;2.50;1.90;;;11.90;99.90;;;;;;5028502;28;20017;-45
2021/05/09 02:15:31;;;;;;;3.95;1.80;;;11.80;99.90;;;;;;5027884;28;20481;-45
2021/05/09 02:17:57;;;;;;;2.45;2.03;;;11.80;99.90;;;;;;5027150;28;20026;-45
2021/05/09 02:20:22;;;;;;;2.97;2.10;;;11.80;99.90;;;;;;5027645;28;20361;-46
2021/05/09 02:22:49;;;;;;;2.00;1.70;;;11.80;99.90;;;;;;5027422;28;20044;-45
2021/05/09 02:25:15;;;;;;;2.67;1.77;;;11.80;99.90;;;;;;5031678;28;20026;-45
2021/05/09 02:27:41;;;;;;;2.92;1.67;;;11.70;99.90;;;;;;5031254;28;20079;-45
2021/05/09 02:30:07;;;;;;;2.42;1.80;;;11.70;99.90;;;;;;5031523;28;20040;-44
2021/05/09 02:32:33;;;;;;;3.90;2.10;;;11.70;99.90;;;;;;5029266;28;20518;-45
2021/05/09 02:34:58;;;;;;;4.70;1.98;;;11.70;99.90;;;;;;5031830;28;20103;-44
2021/05/09 02:37:24;;;;;;;1.83;1.60;;;11.70;99.90;;;;;;5031486;28;20021;-44
2021/05/09 02:39:50;;;;;;;3.30;2.08;;;11.70;99.90;;;;;;5031553;28;20083;-46
2021/05/09 02:42:16;;;;;;;4.40;2.20;;;11.60;99.90;;;;;;5031576;28;20033;-45
2021/05/09 02:44:42;;;;;;;2.72;2.13;;;11.50;99.90;;;;;;5031407;28;20024;-44
2021/05/09 02:47:08;;;;;;;2.85;1.70;;;11.50;99.90;;;;;;5031155;28;20013;-44
2021/05/09 02:49:33;;;;;;;2.97;1.88;;;11.40;99.90;;;;;;5031156;28;20049;-45
2021/05/09 02:52:00;;;;;;;3.13;1.60;;;11.40;99.90;;;;;;5031528;28;20040;-45
2021/05/09 02:54:26;;;;;;;2.05;1.70;;;11.40;99.90;;;;;;5031480;28;20441;-46
2021/05/09 02:56:52;;;;;;;3.88;2.15;;;11.40;99.90;;;;;;5031207;28;20025;-44
2021/05/09 02:59:17;;;;;;;2.85;1.95;;;11.30;99.90;;;;;;5030907;28;20025;-45
2021/05/09 03:01:43;;;;;;;3.47;2.00;;;11.30;99.90;;;;;;5032029;28;20380;-44
2021/05/09 03:04:08;;;;;;;2.05;1.77;;;11.20;99.90;;;;;;5030194;28;20029;-44
2021/05/09 03:06:34;;;;;;;4.70;2.03;;;11.20;99.90;;;;;;5032032;28;20104;-44
2021/05/09 03:08:59;;;;;;;8.02;7.00;;;11.20;99.90;;;;;;5030929;28;20037;-44
2021/05/09 03:11:28;;;;;;;2.83;2.30;;;11.20;99.90;;;;;;5031673;28;20025;-45
2021/05/09 03:13:54;;;;;;;2.40;2.00;;;11.10;99.90;;;;;;5031315;28;20037;-44
2021/05/09 03:16:20;;;;;;;2.22;1.75;;;11.10;99.90;;;;;;5031566;28;20057;-44
2021/05/09 03:18:45;;;;;;;2.80;1.83;;;11.00;99.90;;;;;;5030632;28;20033;-44
2021/05/09 03:21:10;;;;;;;2.00;1.75;;;11.00;99.90;;;;;;5029837;28;20402;-44
2021/05/09 03:23:36;;;;;;;2.30;2.10;;;11.00;99.90;;;;;;5031380;28;20037;-44
2021/05/09 03:26:01;;;;;;;3.03;1.90;;;10.90;99.90;;;;;;5030029;28;20105;-45
2021/05/09 03:28:27;;;;;;;2.75;2.10;;;10.80;99.90;;;;;;5029026;28;20026;-45
2021/05/09 03:30:52;;;;;;;3.08;2.00;;;10.80;99.90;;;;;;5029979;28;20184;-44
2021/05/09 03:33:18;;;;;;;2.70;2.13;;;10.80;99.90;;;;;;5028315;28;20072;-46
2021/05/09 03:35:43;;;;;;;4.03;2.22;;;10.70;99.90;;;;;;5030017;28;20100;-45
2021/05/09 03:38:09;;;;;;;4.95;2.00;;;10.60;99.90;;;;;;5030016;28;20022;-44
2021/05/09 03:40:35;;;;;;;3.75;2.75;;;10.50;99.90;;;;;;5029969;28;20021;-44
2021/05/09 03:43:00;;;;;;;3.28;2.17;;;10.50;99.90;;;;;;5029690;28;20110;-44
2021/05/09 03:45:26;;;;;;;4.13;2.30;;;10.40;99.90;;;;;;5030653;28;20036;-44
2021/05/09 03:47:51;;;;;;;4.03;2.40;;;10.40;99.90;;;;;;5030102;28;20021;-44
2021/05/09 03:50:17;;;;;;;3.13;2.10;;;10.40;99.90;;;;;;5031012;28;20033;-44
2021/05/09 03:52:42;;;;;;;3.70;2.47;;;10.30;99.90;;;;;;5030991;28;20368;-45
2021/05/09 03:55:09;;;;;;;3.67;2.30;;;10.30;99.90;;;;;;5028937;28;20065;-45
2021/05/09 03:57:35;;;;;;;3.67;2.90;;;10.30;99.90;;;;;;5030179;28;20025;-47
2021/05/09 04:00:00;;;;;;;4.28;2.13;;;10.30;99.90;;;;;;5030665;28;20034;-49
2021/05/09 04:02:25;;;;;;;2.63;2.10;;;10.40;99.90;;;;;;5030742;28;20156;-44
2021/05/09 04:04:51;;;;;;;3.92;2.25;;;10.50;99.90;;;;;;5030877;28;20022;-45
2021/05/09 04:07:16;;;;;;;3.00;2.30;;;10.50;99.90;;;;;;5030873;28;20510;-45
2021/05/09 04:09:42;;;;;;;2.38;2.10;;;10.60;99.90;;;;;;5030433;28;20029;-45
2021/05/09 04:12:08;;;;;;;5.20;2.20;;;10.60;99.90;;;;;;5030489;28;20029;-45
2021/05/09 04:14:34;;;;;;;2.38;1.75;;;10.70;99.90;;;;;;5030188;28;20029;-45
2021/05/09 04:16:59;;;;;;;3.10;2.20;;;10.70;99.90;;;;;;5029004;28;20029;-46
2021/05/09 04:19:25;;;;;;;4.00;1.70;;;10.80;99.90;;;;;;5028107;28;20067;-45
2021/05/09 04:21:51;;;;;;;3.42;2.05;;;10.90;99.90;;;;;;5029000;28;20475;-45
2021/05/09 04:24:18;;;;;;;3.78;2.20;;;11.00;99.90;;;;;;5028819;28;20037;-44
2021/05/09 04:26:43;;;;;;;2.63;2.17;;;11.10;99.90;;;;;;5029484;28;20029;-44
2021/05/09 04:29:09;;;;;;;3.88;2.65;;;11.20;99.90;;;;;;5028694;28;20030;-45
2021/05/09 04:31:34;;;;;;;4.95;2.13;;;11.20;99.90;;;;;;5029750;28;20064;-45
2021/05/09 04:34:01;;;;;;;3.33;2.22;;;11.30;99.90;;;;;;5029246;28;20026;-45
2021/05/09 04:36:26;;;;;;;3.40;2.40;;;11.40;99.90;;;;;;5029483;28;20029;-45
2021/05/09 04:38:52;;;;;;;4.07;1.85;;;11.40;99.90;;;;;;5029123;28;20091;-46
2021/05/09 04:41:18;;;;;;;3.85;2.10;;;11.50;99.90;;;;;;5029426;28;20025;-43
2021/05/09 04:43:43;;;;;;;2.78;1.90;;;11.60;99.90;;;;;;5030270;28;20024;-44
2021/05/09 04:46:09;;;;;;;2.50;2.20;;;11.70;99.90;;;;;;5027673;28;20029;-44
2021/05/09 04:48:34;;;;;;;4.10;2.17;;;11.80;99.90;;;;;;5028788;28;20032;-44
2021/05/09 04:51:00;;;;;;;3.83;1.92;;;11.80;99.90;;;;;;5029305;28;20470;-44
2021/05/09 04:53:36;;;;;;;3.92;2.40;;;11.90;99.90;;;;;;5029477;28;20480;-45
2021/05/09 04:56:07;;;;;;;4.32;2.10;;;12.00;99.90;;;;;;5026786;28;20028;-44
2021/05/09 04:58:34;;;;;;;2.97;2.00;;;12.10;99.90;;;;;;5028765;28;20022;-47
2021/05/09 05:01:03;;;;;;;4.40;2.10;;;12.20;99.90;;;;;;5029287;28;20483;-44
2021/05/09 05:03:29;;;;;;;2.95;2.10;;;12.20;99.90;;;;;;5027475;28;20357;-45
2021/05/09 05:05:55;;;;;;;4.32;2.13;;;12.10;99.90;;;;;;5029131;28;20022;-44
2021/05/09 05:08:20;;;;;;;3.97;1.98;;;12.20;99.90;;;;;;5024608;28;20049;-45
2021/05/09 05:10:46;;;;;;;3.15;2.42;;;12.30;99.90;;;;;;5029363;28;20052;-44
2021/05/09 05:13:31;;;;;;;2.50;2.00;;;12.30;99.90;;;;;;5029638;28;20028;-44
2021/05/09 05:15:57;;;;;;;2.75;2.20;;;12.40;99.90;;;;;;5028513;28;20445;-42
2021/05/09 05:18:23;;;;;;;3.38;2.05;;;12.40;99.90;;;;;;5028374;28;20021;-45
2021/05/09 05:20:51;;;;;;;5.07;2.47;;;12.40;99.90;;;;;;5028834;28;20065;-44
2021/05/09 05:23:17;;;;;;;5.03;2.10;;;12.40;99.90;;;;;;5028623;28;20026;-43
2021/05/09 05:25:43;;;;;;;3.10;2.20;;;12.40;99.90;;;;;;5028029;28;20017;-44
2021/05/09 05:28:10;;;;;;;2.30;2.08;;;12.50;99.90;;;;;;5028011;28;20060;-43
2021/05/09 05:30:36;;;;;;;5.70;1.95;;;12.60;99.90;;;;;;5027161;28;20079;-42
2021/05/09 05:33:02;;;;;;;5.80;2.20;;;12.70;99.90;;;;;;5022855;28;20116;-43
2021/05/09 05:35:28;;;;;;;2.88;1.80;;;12.70;99.90;;;;;;5028548;28;20243;-43
2021/05/09 05:37:55;;;;;;;2.83;2.28;;;12.80;99.90;;;;;;5028059;28;20294;-44
2021/05/09 05:40:22;;;;;;;2.17;1.70;;;12.80;99.90;;;;;;5028370;28;20028;-44
2021/05/09 05:42:48;;;;;;;4.38;2.03;;;12.90;99.90;;;;;;5028373;28;20083;-43
2021/05/09 05:45:13;;;;;;;3.55;2.40;;;12.80;99.90;;;;;;5028682;28;20029;-44
2021/05/09 05:47:40;;;;;;;2.75;2.10;;;12.90;99.70;;;;;;5027907;28;20497;-44
2021/05/09 05:50:06;;;;;;;3.33;2.15;;;13.00;99.80;;;;;;5028361;28;20017;-43
2021/05/09 05:52:32;;;;;;;3.75;2.10;;;13.00;99.90;;;;;;5028395;28;20035;-45
2021/05/09 05:54:58;;;;;;;3.47;2.25;;;13.10;99.70;;;;;;5027815;28;20144;-44
2021/05/09 05:57:23;;;;;;;3.05;2.10;;;13.20;99.60;;;;;;5027693;28;20041;-44
2021/05/09 05:59:49;;;;;;;4.43;1.90;;;13.30;99.50;;;;;;5027649;28;20431;-44
2021/05/09 06:02:14;;;;;;;2.78;2.20;;;13.40;99.20;;;;;;5028230;28;20021;-44
2021/05/09 06:04:40;;;;;;;2.65;2.10;;;13.40;99.30;;;;;;5027826;28;20611;-45
2021/05/09 06:07:12;;;;;;;2.97;2.17;;;13.50;99.30;;;;;;5027925;28;20078;-45
2021/05/09 06:09:38;;;;;;;2.08;1.70;;;13.50;99.30;;;;;;5027581;28;20422;-45
2021/05/09 06:12:05;;;;;;;4.10;2.17;;;13.60;99.30;;;;;;5028077;28;20021;-45
2021/05/09 06:14:30;;;;;;;4.53;2.25;;;13.70;99.00;;;;;;5028065;28;20069;-44
2021/05/09 06:16:56;;;;;;;3.03;2.08;;;13.80;99.00;;;;;;5027795;28;20629;-44
2021/05/09 06:19:21;;;;;;;3.55;2.70;;;13.90;98.90;;;;;;5028231;28;20048;-44
2021/05/09 06:21:47;;;;;;;2.67;1.70;;;13.90;98.90;;;;;;5029844;28;20059;-44
2021/05/09 06:24:12;;;;;;;4.53;2.30;;;14.10;98.80;;;;;;5028671;28;20029;-47
2021/05/09 06:26:38;;;;;;;3.17;2.00;;;14.20;98.80;;;;;;5026946;28;20096;-44
2021/05/09 06:29:04;;;;;;;4.32;1.80;;;14.40;98.40;;;;;;5027947;28;20479;-45
2021/05/09 06:31:30;;;;;;;2.38;1.65;;;14.50;98.70;;;;;;5029957;28;20056;-44
2021/05/09 06:33:55;;;;;;;3.13;2.00;;;14.60;98.30;;;;;;5029294;28;20021;-44
2021/05/09 06:36:21;;;;;;;4.05;1.88;;;14.70;98.10;;;;;;5030180;28;20113;-44
2021/05/09 06:38:46;;;;;;;3.72;2.30;;;14.70;98.20;;;;;;5029080;28;20152;-45
2021/05/09 06:41:12;;;;;;;3.25;1.92;;;14.90;98.00;;;;;;5029499;28;20029;-46
2021/05/09 06:43:37;;;;;;;2.30;1.80;;;15.00;97.70;;;;;;5029451;28;20040;-45
2021/05/09 06:46:03;;;;;;;2.83;2.08;;;15.10;97.80;;;;;;5027324;28;20020;-45
2021/05/09 06:48:29;;;;;;;7.50;2.28;;;15.20;97.70;;;;;;5027924;28;20017;-44
2021/05/09 06:50:57;;;;;;;2.55;1.60;;;15.50;97.60;;;;;;5027404;28;20648;-44
2021/05/09 06:53:22;;;;;;;3.63;1.58;;;15.50;97.30;;;;;;5028789;28;20030;-44
2021/05/09 06:55:51;;;;;;;2.55;1.58;;;15.70;97.10;;;;;;5024338;28;20083;-45
2021/05/09 06:58:22;;;;;;;2.88;1.88;;;15.70;97.10;;;;;;5028641;28;20105;-44
2021/05/09 07:00:48;;;;;;;5.18;1.98;;;15.90;96.50;;;;;;5029294;28;20040;-43
2021/05/09 07:03:13;;;;;;;3.45;2.47;;;16.00;96.70;;;;;;5028730;28;20025;-45
2021/05/09 07:05:39;;;;;;;2.85;2.08;;;16.10;96.40;;;;;;5029263;28;20032;-45
2021/05/09 07:08:04;;;;;;;3.10;2.05;;;16.20;97.40;;;;;;5028057;28;20325;-46
2021/05/09 07:10:33;;;;;;;3.67;1.70;;;16.30;96.40;;;;;;5030644;28;20430;-44
2021/05/09 07:13:00;;;;;;;2.25;1.80;;;16.30;96.70;;;;;;5032875;28;20096;-46
2021/05/09 07:15:28;;;;;;;2.13;1.70;;;16.50;96.80;;;;;;5032931;28;20028;-45
2021/05/09 07:18:02;;;;;;;2.38;1.90;;;16.60;96.60;;;;;;5032130;28;20017;-45
2021/05/09 07:20:28;;;;;;;3.60;1.70;;;16.70;96.40;;;;;;5030737;28;20458;-47
2021/05/09 07:22:54;;;;;;;1.92;1.45;;;16.80;95.90;;;;;;5031404;28;20112;-45
2021/05/09 07:25:21;;;;;;;1.80;1.60;;;16.80;95.70;;;;;;5030027;28;20017;-46
2021/05/09 07:27:47;;;;;;;1.92;1.50;;;17.00;95.40;;;;;;5028875;28;20025;-44
2021/05/09 07:30:13;;;;;;;1.92;1.77;;;17.20;94.60;;;;;;5031929;28;20129;-44
2021/05/09 07:32:39;;;;;;;8.85;1.80;;;17.40;94.10;;;;;;5030912;28;20033;-44
2021/05/09 07:35:04;;;;;;;2.55;1.85;;;17.50;94.10;;;;;;5031515;28;20020;-45
2021/05/09 07:37:30;;;;;;;1.98;1.77;;;17.60;93.90;;;;;;5031865;28;20029;-45
2021/05/09 07:39:55;;;;;;;3.20;1.85;;;17.70;94.40;;;;;;5030602;28;20022;-44
2021/05/09 07:42:21;;;;;;;2.50;1.63;;;17.90;93.30;;;;;;5031456;28;20034;-43
2021/05/09 07:44:46;;;;;;;2.13;1.55;;;18.20;92.30;;;;;;5030348;28;20044;-45
2021/05/09 07:47:12;;;;;;;3.05;1.77;;;18.30;92.00;;;;;;5031732;28;20100;-45
2021/05/09 07:49:37;;;;;;;5.60;1.90;;;18.50;91.90;;;;;;5031001;28;20111;-44
2021/05/09 07:52:03;;;;;;;2.20;1.58;;;18.70;91.80;;;;;;5029276;28;20033;-44
2021/05/09 07:54:29;;;;;;;3.10;2.00;;;18.70;90.70;;;;;;5031469;28;20025;-44
2021/05/09 07:56:54;;;;;;;1.88;1.58;;;18.90;91.10;;;;;;5030836;28;20040;-48
2021/05/09 07:59:20;;;;;;;2.70;1.90;;;19.00;90.60;;;;;;5029447;28;20025;-45
2021/05/09 08:01:45;;;;;;;3.10;1.85;;;19.10;90.00;;;;;;5032173;28;20106;-44
2021/05/09 08:04:11;;;;;;;3.35;1.70;;;19.30;88.90;;;;;;5027613;28;20025;-44
2021/05/09 08:06:38;;;;;;;3.25;2.30;;;19.50;88.90;;;;;;5031935;28;20036;-45
2021/05/09 08:09:04;;;;;;;1.60;1.40;;;19.70;86.60;;;;;;5031283;28;20538;-44
2021/05/09 08:11:30;;;;;;;5.80;1.63;;;19.90;85.50;;;;;;5031981;28;20029;-47
2021/05/09 08:13:55;;;;;;;4.70;1.65;;;20.20;86.30;;;;;;5032277;28;20498;-44
2021/05/09 08:16:21;;;;;;;5.60;1.73;;;20.40;84.70;;;;;;5031856;28;20029;-44
2021/05/09 08:18:46;;;;;;;3.67;1.90;;;20.60;83.50;;;;;;5031161;28;20043;-44
2021/05/09 08:21:12;;;;;;;2.10;1.80;;;21.00;80.20;;;;;;5030585;28;20040;-45
2021/05/09 08:23:39;;;;;;;4.35;1.60;;;20.80;79.40;;;;;;5031997;28;20025;-46
2021/05/09 08:26:04;;;;;;;2.80;1.58;;;21.20;80.70;;;;;;5032073;28;20025;-45
2021/05/09 08:28:30;;;;;;;3.63;1.60;;;21.70;76.60;;;;;;5031196;28;20026;-46
2021/05/09 08:30:55;;;;;;;2.65;1.30;;;22.30;74.00;;;;;;5031653;28;20060;-45
2021/05/09 08:33:21;;;;;;;1.98;1.70;;;23.40;68.60;;;;;;5030866;28;20079;-44
2021/05/09 08:35:46;;;;;;;4.13;1.20;;;25.30;61.70;;;;;;5031765;28;20045;-47
2021/05/09 08:38:12;;;;;;;3.92;1.42;;;26.10;56.50;;;;;;5031001;28;20040;-46
2021/05/09 08:40:37;;;;;;;2.78;1.10;;;28.00;53.00;;;;;;5031559;28;20507;-46
2021/05/09 08:43:03;;;;;;;1.95;1.30;;;28.70;47.90;;;;;;5031260;28;20022;-46
2021/05/09 08:45:28;;;;;;;2.92;1.30;;;28.90;46.30;;;;;;5031346;28;20025;-46
2021/05/09 08:47:55;;;;;;;3.47;1.20;;;29.00;48.20;;;;;;5030469;28;20030;-46
2021/05/09 08:50:22;;;;;;;2.47;1.58;;;29.70;45.80;;;;;;5031183;28;20104;-48
2021/05/09 08:52:50;;;;;;;3.45;1.10;;;31.00;43.80;;;;;;5031347;28;20049;-47
2021/05/09 08:55:21;;;;;;;1.60;1.10;;;31.80;42.10;;;;;;5030576;28;20552;-45
2021/05/09 08:57:46;;;;;;;1.33;1.23;;;29.80;40.50;;;;;;5030845;28;20443;-48
2021/05/09 09:00:14;;;;;;;2.53;1.10;;;28.20;43.60;;;;;;5031196;28;20040;-45
2021/05/09 09:02:41;;;;;;;4.78;1.27;;;28.80;45.30;;;;;;5031309;28;20021;-47
2021/05/09 09:05:08;;;;;;;1.20;1.10;;;29.90;42.20;;;;;;5031176;28;20590;-49
2021/05/09 09:07:51;;;;;;;1.55;1.13;;;30.80;42.20;;;;;;5030356;28;20036;-44
2021/05/09 09:10:34;;;;;;;2.35;1.13;;;32.50;41.10;;;;;;5030802;28;20497;-44
2021/05/09 09:13:01;;;;;;;1.20;0.90;;;32.90;39.50;;;;;;5031295;28;20022;-45
2021/05/09 09:15:45;;;;;;;1.88;0.95;;;33.20;37.70;;;;;;5030968;28;20029;-45
2021/05/09 09:18:44;;;;;;;1.88;1.10;;;33.80;40.10;;;;;;5030511;28;20041;-45
2021/05/09 09:21:19;;;;;;;1.53;1.10;;;34.70;37.30;;;;;;5030934;28;20021;-44
2021/05/09 09:23:47;;;;;;;0.88;0.80;;;32.50;39.30;;;;;;5030791;28;20264;-45
2021/05/09 09:26:38;;;;;;;1.17;0.90;;;33.90;37.60;;;;;;5030041;28;20372;-46
2021/05/09 09:29:25;;;;;;;1.63;1.38;;;32.80;39.10;;;;;;5030071;28;20039;-48
2021/05/09 09:31:59;;;;;;;2.97;1.20;;;31.70;37.50;;;;;;5029129;28;20030;-47
2021/05/09 09:34:54;;;;;;;3.45;1.10;;;32.50;39.70;;;;;;5028426;28;20060;-44
2021/05/09 09:37:21;;;;;;;1.65;1.00;;;30.60;39.90;;;;;;5029497;28;20043;-45
2021/05/09 09:39:53;;;;;;;1.25;1.05;;;30.20;40.50;;;;;;5029799;28;20029;-45
2021/05/09 09:42:35;;;;;;;2.78;1.23;;;32.40;38.90;;;;;;5030457;28;20026;-46
2021/05/09 09:45:16;;;;;;;1.35;1.02;;;33.30;38.40;;;;;;5030442;28;20028;-44
2021/05/09 09:47:50;;;;;;;1.55;1.10;;;33.30;37.20;;;;;;5029958;28;20053;-48
2021/05/09 09:50:35;;;;;;;1.77;1.23;;;33.40;37.40;;;;;;5028926;28;20730;-46
2021/05/09 09:53:01;;;;;;;2.58;1.40;;;32.80;38.30;;;;;;5030678;28;20667;-45
2021/05/09 09:55:27;;;;;;;1.45;1.00;;;31.80;38.20;;;;;;5030534;28;20029;-46
2021/05/09 09:58:01;;;;;;;1.42;1.10;;;31.50;40.10;;;;;;5029901;28;20029;-46
2021/05/09 10:00:27;;;;;;;3.35;1.30;;;32.60;40.30;;;;;;5030536;28;20036;-44
2021/05/09 10:02:55;;;;;;;1.98;1.25;;;33.20;38.00;;;;;;5029188;28;20379;-45
2021/05/09 10:05:21;;;;;;;1.75;1.10;;;33.30;38.60;;;;;;5030205;28;20040;-47
2021/05/09 10:07:48;;;;;;;1.55;1.15;;;32.40;39.50;;;;;;5029813;28;20025;-45
2021/05/09 10:10:14;;;;;;;1.70;1.10;;;33.60;37.00;;;;;;5030321;28;20034;-46
2021/05/09 10:12:40;;;;;;;1.55;0.90;;;33.20;37.60;;;;;;5030335;28;20117;-45
2021/05/09 10:15:06;;;;;;;2.85;1.30;;;35.00;36.20;;;;;;5030091;28;20108;-46
2021/05/09 10:17:32;;;;;;;4.90;1.40;;;36.60;35.40;;;;;;5029655;28;20360;-46
2021/05/09 10:19:58;;;;;;;2.25;1.10;;;36.60;35.50;;;;;;5029906;28;20066;-45
2021/05/09 10:22:29;;;;;;;2.42;1.25;;;35.80;34.20;;;;;;5029067;28;20029;-48
2021/05/09 10:24:55;;;;;;;4.68;1.10;;;35.60;35.10;;;;;;5030108;28;20029;-46
2021/05/09 10:27:37;;;;;;;2.65;1.67;;;36.70;35.20;;;;;;5029747;28;20049;-47
2021/05/09 10:30:07;;;;;;;2.13;1.13;;;33.10;36.10;;;;;;5030284;28;20029;-46
2021/05/09 10:32:36;;;;;;;2.15;1.20;;;34.20;38.00;;;;;;5029862;28;20040;-47
2021/05/09 10:35:04;;;;;;;6.82;1.38;;;34.20;36.20;;;;;;5030133;28;20041;-46
2021/05/09 10:37:38;;;;;;;2.13;1.20;;;35.20;37.00;;;;;;5029562;28;20091;-46
2021/05/09 10:40:36;;;;;;;1.17;0.95;;;36.30;35.10;;;;;;5030086;28;20025;-48
2021/05/09 10:43:01;;;;;;;5.93;1.23;;;37.70;35.00;;;;;;5010311;28;20030;-48
2021/05/09 10:45:29;;;;;;;1.70;1.17;;;38.70;34.40;;;;;;5027088;28;20120;-45
2021/05/09 10:48:13;;;;;;;1.85;1.05;;;38.60;33.50;;;;;;5033033;28;20033;-47
2021/05/09 10:50:38;;;;;;;4.28;1.58;;;34.50;32.70;;;;;;5033424;28;20044;-48
2021/05/09 10:53:04;;;;;;;2.10;1.33;;;33.50;35.70;;;;;;5041965;28;20029;-45
2021/05/09 10:55:36;;;;;;;2.90;1.25;;;31.90;36.80;;;;;;5053494;28;20029;-45
2021/05/09 10:58:05;;;;;;;2.53;1.45;;;32.60;37.40;;;;;;5045501;28;20030;-47
2021/05/09 11:01:00;;;;;;;2.65;1.17;;;33.40;36.90;;;;;;5033218;28;20030;-44
2021/05/09 11:03:34;;;;;;;1.58;1.08;;;35.30;36.10;;;;;;5039311;28;20123;-46
2021/05/09 11:06:18;;;;;;;1.80;1.35;;;34.10;37.30;;;;;;5048967;28;20025;-45
2021/05/09 11:08:48;;;;;;;2.20;1.35;;;32.20;36.00;;;;;;5052720;28;20694;-56
2021/05/09 11:11:22;;;;;;;;;;;33.70;37.30;;;;;;5053597;28;20021;-45
2021/05/09 11:13:58;;;;;;;1.15;1.05;;;32.30;36.70;;;;;;5035560;28;20521;-45
2021/05/09 11:16:33;;;;;;;1.20;1.10;;;32.20;37.30;;;;;;5033267;28;20020;-47
2021/05/09 11:19:06;;;;;;;3.28;1.30;;;33.90;38.30;;;;;;5032469;28;20382;-45
2021/05/09 11:21:33;;;;;;;2.47;1.17;;;34.90;36.50;;;;;;5033115;28;20124;-48
2021/05/09 11:24:00;;;;;;;2.50;1.42;;;36.60;34.80;;;;;;5033431;28;20032;-45
2021/05/09 11:26:30;;;;;;;1.90;1.27;;;37.50;34.00;;;;;;5031700;28;20025;-47
2021/05/09 11:29:12;;;;;;;3.35;1.33;;;37.50;35.50;;;;;;5032485;28;20026;-46
2021/05/09 11:31:47;;;;;;;3.70;1.73;;;38.20;33.50;;;;;;5032021;28;20399;-48
2021/05/09 11:34:14;;;;;;;3.60;1.30;;;38.50;33.40;;;;;;5020270;28;20032;-48
2021/05/09 11:36:41;;;;;;;1.85;1.17;;;38.80;32.60;;;;;;5029123;28;20519;-46
2021/05/09 11:39:12;;;;;;;2.00;1.13;;;36.50;32.30;;;;;;5030431;28;20041;-46
2021/05/09 11:41:47;;;;;;;4.38;1.25;;;36.50;34.00;;;;;;5028053;28;20103;-44
2021/05/09 11:44:12;;;;;;;2.83;1.30;;;36.60;33.70;;;;;;5027281;28;20091;-46
2021/05/09 11:46:38;;;;;;;2.90;1.30;;;36.70;32.70;;;;;;5029497;28;20045;-45
2021/05/09 11:49:21;;;;;;;2.33;1.15;;;35.50;33.60;;;;;;5028544;28;20041;-46
2021/05/09 11:51:58;;;;;;;1.92;1.10;;;35.30;34.50;;;;;;5029052;28;20021;-46
2021/05/09 11:54:29;;;;;;;1.73;1.30;;;36.10;33.50;;;;;;5026854;28;20411;-45
2021/05/09 11:57:06;;;;;;;2.03;0.90;;;35.60;33.60;;;;;;5027379;28;20479;-46
2021/05/09 11:59:41;;;;;;;2.08;1.13;;;35.30;34.10;;;;;;5026528;28;20029;-45
2021/05/09 12:02:12;;;;;;;2.42;1.10;;;34.20;33.80;;;;;;5027425;28;20100;-45
2021/05/09 12:04:42;;;;;;;1.38;1.27;;;33.10;36.50;;;;;;5027859;28;20108;-45
2021/05/09 12:07:13;;;;;;;2.67;1.45;;;32.20;37.10;;;;;;5028480;28;20360;-45
2021/05/09 12:09:39;;;;;;;2.08;1.50;;;31.10;38.40;;;;;;5028561;28;20128;-45
2021/05/09 12:12:05;;;;;;;1.52;1.23;;;31.70;39.60;;;;;;5028215;28;20407;-45
2021/05/09 12:14:31;;;;;;;2.53;1.50;;;31.60;37.90;;;;;;5027421;28;20503;-44
2021/05/09 12:16:57;;;;;;;4.00;1.23;;;30.60;38.30;;;;;;5028858;28;20044;-45
2021/05/09 12:19:30;;;;;;;1.85;1.45;;;30.20;38.50;;;;;;5027693;28;20026;-46
2021/05/09 12:21:58;;;;;;;2.33;1.50;;;30.40;39.50;;;;;;5026916;28;20041;-45
2021/05/09 12:24:24;;;;;;;2.78;1.70;;;30.60;40.60;;;;;;5026912;28;20389;-44
2021/05/09 12:27:07;;;;;;;2.83;1.10;;;30.80;40.70;;;;;;5027038;28;20044;-44
2021/05/09 12:29:44;;;;;;;2.10;1.33;;;30.60;39.60;;;;;;5026198;28;20180;-46
2021/05/09 12:32:19;;;;;;;1.80;1.40;;;30.40;39.10;;;;;;5008939;28;20569;-45
2021/05/09 12:35:03;;;;;;;2.63;1.65;;;29.60;40.50;;;;;;5015929;28;20120;-44
2021/05/09 12:37:30;;;;;;;1.83;1.20;;;29.70;41.50;;;;;;5027889;28;20464;-44
2021/05/09 12:40:11;;;;;;;1.98;1.30;;;30.00;41.80;;;;;;5029287;28;20020;-45
2021/05/09 12:42:56;;;;;;;2.30;1.42;;;30.20;40.10;;;;;;5029599;28;20025;-45
2021/05/09 12:45:28;;;;;;;2.60;1.50;;;30.20;41.70;;;;;;5028860;28;20483;-44
2021/05/09 12:48:02;;;;;;;2.67;1.40;;;29.90;41.70;;;;;;5028073;28;20014;-45
2021/05/09 12:50:48;;;;;;;3.63;1.75;;;30.10;41.70;;;;;;5028593;28;20033;-45
2021/05/09 12:53:35;;;;;;;1.70;1.27;;;30.10;41.60;;;;;;5028222;28;20087;-45